Time;durP1;ratioP1;P1;durP2;ratioP2;P2;SDS_P1;SDS_P2;PMS_P1;PMS_P2;Temp;Humidity;BMP_temperature;BMP_pressure;BME280_temperature;BME280_humidity;BME280_pressure;Samples;Min_cycle;Max_cycle;Signal;HPM_P1;HPM_P2
2022/10/07 00:01:00;;;;;;;;;;;28.70;88.70;;;;;;5168653;27;19909;-48
2022/10/07 00:03:26;;;;;;;;;;;28.70;88.10;;;;;;5168528;27;19910;-44
2022/10/07 00:06:02;;;;;;;;;;;28.60;87.60;;;;;;5168741;27;20190;-41
2022/10/07 00:08:28;;;;;;;;;;;28.60;87.50;;;;;;5168638;27;19910;-43
2022/10/07 00:10:54;;;;;;;;;;;28.60;87.30;;;;;;5168372;27;19995;-47
2022/10/07 00:13:21;;;;;;;;;;;28.60;87.30;;;;;;5168192;27;20060;-49
2022/10/07 00:15:47;;;;;;;;;;;28.60;87.50;;;;;;5168435;27;25087;-53
2022/10/07 00:18:13;;;;;;;;;;;28.50;87.20;;;;;;5168053;27;20214;-48
2022/10/07 00:20:39;;;;;;;;;;;28.50;87.30;;;;;;5168622;27;19909;-54
2022/10/07 00:23:06;;;;;;;;;;;28.50;87.40;;;;;;5168334;27;25135;-47
2022/10/07 00:25:38;;;;;;;;;;;28.50;87.00;;;;;;5168105;27;25105;-46
2022/10/07 00:28:05;;;;;;;;;;;28.60;87.20;;;;;;5168504;27;19903;-42
2022/10/07 00:30:31;;;;;;;;;;;28.60;87.70;;;;;;5168248;27;19977;-51
2022/10/07 00:32:57;;;;;;;;;;;28.60;87.00;;;;;;5168000;27;20087;-45
2022/10/07 00:35:23;;;;;;;;;;;28.60;87.00;;;;;;5168773;27;19910;-51
2022/10/07 00:37:50;;;;;;;;;;;28.70;87.10;;;;;;5167838;27;19930;-49
2022/10/07 00:40:16;;;;;;;;;;;28.60;86.80;;;;;;5167556;27;24063;-46
2022/10/07 00:42:43;;;;;;;;;;;28.70;87.00;;;;;;5168069;27;24082;-49
2022/10/07 00:45:13;;;;;;;;;;;28.60;87.00;;;;;;5167770;27;19899;-51
2022/10/07 00:47:42;;;;;;;;;;;28.70;87.00;;;;;;5167725;27;19907;-48
2022/10/07 00:50:19;;;;;;;;;;;28.70;87.00;;;;;;5168113;27;24059;-52
2022/10/07 00:52:48;;;;;;;;;;;28.70;87.00;;;;;;5167950;27;25065;-54
2022/10/07 00:55:17;;;;;;;;;;;28.70;87.10;;;;;;5167441;27;20180;-52
2022/10/07 00:57:43;;;;;;;;;;;28.70;87.10;;;;;;5168224;27;19911;-52
2022/10/07 01:00:10;;;;;;;;;;;28.60;87.00;;;;;;5167717;27;19903;-53
2022/10/07 01:02:37;;;;;;;;;;;28.70;87.20;;;;;;5167693;27;19910;-54
2022/10/07 01:05:06;;;;;;;;;;;28.70;87.20;;;;;;5167566;27;19903;-55
2022/10/07 01:07:32;;;;;;;;;;;28.70;87.30;;;;;;5166167;27;24071;-52
2022/10/07 01:09:59;;;;;;;;;;;28.70;87.40;;;;;;5148642;27;20019;-49
2022/10/07 01:12:34;;;;;;;;;;;28.70;87.50;;;;;;5167733;27;24115;-48
2022/10/07 01:15:07;;;;;;;;;;;28.70;87.60;;;;;;5167313;27;19901;-44
2022/10/07 01:17:36;;;;;;;;;;;28.70;87.70;;;;;;5168296;27;24284;-45
2022/10/07 01:20:02;;;;;;;;;;;28.70;87.80;;;;;;5167379;27;19907;-50
2022/10/07 01:22:40;;;;;;;;;;;28.60;87.70;;;;;;5167208;27;19914;-53
2022/10/07 01:25:08;;;;;;;;;;;28.60;87.80;;;;;;5167185;27;19899;-47
2022/10/07 01:27:34;;;;;;;;;;;28.60;87.80;;;;;;5148801;27;24077;-51
2022/10/07 01:30:05;;;;;;;;;;;28.60;87.80;;;;;;5149079;27;20350;-55
2022/10/07 01:32:36;;;;;;;;;;;28.60;87.90;;;;;;5148867;27;25088;-52
2022/10/07 01:35:05;;;;;;;;;;;28.60;88.20;;;;;;5166997;27;19910;-50
2022/10/07 01:37:34;;;;;;;;;;;28.60;88.10;;;;;;5167002;27;19911;-46
2022/10/07 01:40:09;;;;;;;;;;;28.60;88.10;;;;;;5166598;27;19947;-54
2022/10/07 01:42:35;;;;;;;;;;;28.50;88.20;;;;;;5166834;27;24052;-48
2022/10/07 01:45:02;;;;;;;;;;;28.60;88.20;;;;;;5166825;27;20021;-51
2022/10/07 01:47:28;;;;;;;;;;;28.60;88.20;;;;;;5167000;27;19919;-49
2022/10/07 01:49:54;;;;;;;;;;;28.60;88.30;;;;;;5166652;27;20259;-49
2022/10/07 01:52:42;;;;;;;;;;;28.50;88.40;;;;;;5166463;27;20143;-45
2022/10/07 01:55:08;;;;;;;;;;;28.50;88.60;;;;;;5166794;27;19903;-44
2022/10/07 01:57:50;;;;;;;;;;;28.50;88.90;;;;;;5166723;27;19903;-48
2022/10/07 02:00:17;;;;;;;;;;;28.50;88.60;;;;;;5148632;27;19903;-51
2022/10/07 02:02:43;;;;;;;;;;;28.40;88.70;;;;;;5166755;27;19924;-52
2022/10/07 02:05:27;;;;;;;;;;;28.40;88.70;;;;;;5166571;27;19903;-43
2022/10/07 02:08:16;;;;;;;;;;;28.40;88.60;;;;;;5166780;27;19906;-46
2022/10/07 02:10:42;;;;;;;;;;;28.40;88.60;;;;;;5166524;27;19903;-50
2022/10/07 02:13:12;;;;;;;;;;;28.40;88.60;;;;;;5165912;27;24087;-49
2022/10/07 02:15:46;;;;;;;;;;;28.40;88.60;;;;;;5147590;27;19910;-43
2022/10/07 02:18:18;;;;;;;;;;;28.40;88.70;;;;;;5147465;27;19911;-44
2022/10/07 02:20:47;;;;;;;;;;;28.40;88.90;;;;;;5148279;27;19903;-45
2022/10/07 02:23:14;;;;;;;;;;;28.40;88.50;;;;;;5166706;27;20217;-49
2022/10/07 02:25:49;;;;;;;;;;;28.30;88.30;;;;;;5148598;27;19981;-43
2022/10/07 02:28:17;;;;;;;;;;;28.40;88.60;;;;;;5166428;27;19910;-47
2022/10/07 02:30:47;;;;;;;;;;;28.40;88.60;;;;;;5166653;27;20120;-42
2022/10/07 02:33:13;;;;;;;;;;;28.40;88.70;;;;;;5166336;27;19911;-44
2022/10/07 02:35:46;;;;;;;;;;;28.30;88.40;;;;;;5166494;27;20326;-53
2022/10/07 02:38:14;;;;;;;;;;;28.40;88.70;;;;;;5165858;27;19955;-44
2022/10/07 02:40:47;;;;;;;;;;;28.30;88.90;;;;;;5166354;27;19903;-48
2022/10/07 02:43:31;;;;;;;;;;;28.40;89.10;;;;;;5166162;27;19913;-44
2022/10/07 02:46:01;;;;;;;;;;;28.40;89.20;;;;;;5166065;27;19903;-42
2022/10/07 02:48:32;;;;;;;;;;;28.30;89.30;;;;;;5165941;27;19975;-43
2022/10/07 02:51:01;;;;;;;;;;;28.40;89.50;;;;;;5165861;27;19902;-42
2022/10/07 02:53:28;;;;;;;;;;;28.40;89.70;;;;;;5147236;27;20214;-46
2022/10/07 02:55:55;;;;;;;;;;;28.40;89.70;;;;;;5165924;27;19903;-47
2022/10/07 02:58:25;;;;;;;;;;;28.30;89.70;;;;;;5165432;27;19911;-43
2022/10/07 03:00:54;;;;;;;;;;;28.30;89.70;;;;;;5165673;27;24081;-46
2022/10/07 03:03:21;;;;;;;;;;;28.30;89.70;;;;;;5165892;27;20130;-42
2022/10/07 03:05:48;;;;;;;;;;;28.30;89.70;;;;;;5165964;27;24056;-44
2022/10/07 03:08:14;;;;;;;;;;;28.30;89.70;;;;;;5165623;27;19963;-43
2022/10/07 03:10:40;;;;;;;;;;;28.30;89.70;;;;;;5165561;27;24094;-42
2022/10/07 03:13:06;;;;;;;;;;;28.30;89.70;;;;;;5165322;27;20205;-44
2022/10/07 03:15:36;;;;;;;;;;;28.30;89.70;;;;;;5165482;27;20078;-44
2022/10/07 03:18:04;;;;;;;;;;;28.30;89.70;;;;;;5164931;27;24066;-47
2022/10/07 03:20:31;;;;;;;;;;;28.30;89.80;;;;;;5165283;27;19903;-48
2022/10/07 03:23:01;;;;;;;;;;;28.30;89.70;;;;;;5165306;27;19971;-46
2022/10/07 03:25:27;;;;;;;;;;;28.30;89.70;;;;;;5165092;27;19910;-50
2022/10/07 03:27:53;;;;;;;;;;;28.20;89.60;;;;;;5165407;27;19910;-45
2022/10/07 03:30:21;;;;;;;;;;;28.20;89.60;;;;;;5165486;27;20234;-47
2022/10/07 03:32:49;;;;;;;;;;;28.20;89.70;;;;;;5168678;27;19907;-44
2022/10/07 03:35:15;;;;;;;;;;;28.20;89.80;;;;;;5169440;27;20225;-42
2022/10/07 03:37:41;;;;;;;;;;;28.20;89.80;;;;;;5169133;27;19952;-45
2022/10/07 03:40:08;;;;;;;;;;;28.20;89.90;;;;;;5169466;27;19903;-42
2022/10/07 03:42:34;;;;;;;;;;;28.20;90.00;;;;;;5168919;27;20047;-45
2022/10/07 03:45:00;;;;;;;;;;;28.20;90.10;;;;;;5169020;27;19903;-41
2022/10/07 03:47:26;;;;;;;;;;;28.20;90.20;;;;;;5168640;27;24049;-51
2022/10/07 03:49:53;;;;;;;;;;;28.20;90.20;;;;;;5095757;27;24086;-50
2022/10/07 03:52:19;;;;;;;;;;;28.10;90.20;;;;;;5058668;28;20063;-45
2022/10/07 03:54:45;;;;;;;;;;;28.20;90.30;;;;;;5063294;27;20039;-49
2022/10/07 03:59:57;;;;;;;;;;;28.10;90.30;;;;;;5063200;28;19965;-52
2022/10/07 04:02:23;;;;;;;;;;;28.10;90.40;;;;;;5063158;28;19984;-53
2022/10/07 04:04:51;;;;;;;;;;;28.10;90.40;;;;;;5063363;28;20189;-48
2022/10/07 04:07:21;;;;;;;;;;;28.10;90.50;;;;;;5063404;28;20034;-49
2022/10/07 04:09:47;;;;;;;;;;;28.10;90.50;;;;;;5062953;28;24069;-48
2022/10/07 04:12:14;;;;;;;;;;;28.10;90.50;;;;;;5062961;28;24107;-48
2022/10/07 04:14:40;;;;;;;;;;;28.10;90.50;;;;;;5056572;28;24076;-50
2022/10/07 04:17:06;;;;;;;;;;;28.10;90.50;;;;;;5049760;28;20077;-50
2022/10/07 04:19:32;;;;;;;;;;;28.10;90.50;;;;;;5043020;28;19966;-49
2022/10/07 04:21:58;;;;;;;;;;;28.10;90.60;;;;;;5043384;28;20107;-47
2022/10/07 04:24:26;;;;;;;;;;;28.10;90.60;;;;;;5043495;28;20040;-45
2022/10/07 04:26:52;;;;;;;;;;;28.10;90.60;;;;;;5053557;28;20031;-43
2022/10/07 04:29:18;;;;;;;;;;;28.10;90.60;;;;;;5043277;28;19935;-44
2022/10/07 04:31:44;;;;;;;;;;;28.00;90.60;;;;;;5043529;28;20121;-48
2022/10/07 04:34:10;;;;;;;;;;;28.10;90.60;;;;;;5042802;28;24087;-44
2022/10/07 04:36:36;;;;;;;;;;;28.00;90.60;;;;;;5042998;28;19966;-46
2022/10/07 04:39:03;;;;;;;;;;;28.10;90.70;;;;;;5042865;28;19913;-45
2022/10/07 04:41:29;;;;;;;;;;;28.00;90.70;;;;;;5042512;28;19905;-51
2022/10/07 04:43:55;;;;;;;;;;;28.00;90.70;;;;;;5042590;28;19909;-45
2022/10/07 04:46:21;;;;;;;;;;;28.00;90.70;;;;;;5043416;28;20043;-45
2022/10/07 04:48:47;;;;;;;;;;;28.00;90.70;;;;;;5042595;28;19909;-49
2022/10/07 04:51:14;;;;;;;;;;;28.00;90.60;;;;;;5042978;28;20107;-53
2022/10/07 04:53:40;;;;;;;;;;;28.00;90.60;;;;;;5042781;28;25103;-49
2022/10/07 04:56:09;;;;;;;;;;;28.00;90.60;;;;;;5043023;28;20234;-49
2022/10/07 04:58:36;;;;;;;;;;;27.90;90.60;;;;;;5042981;28;19913;-55
2022/10/07 05:01:06;;;;;;;;;;;27.90;90.60;;;;;;5112139;28;19936;-47
2022/10/07 05:03:35;;;;;;;;;;;27.90;90.60;;;;;;5053018;28;19908;-44
2022/10/07 05:06:04;;;;;;;;;;;27.90;90.60;;;;;;5044572;28;24071;-45
2022/10/07 05:08:30;;;;;;;;;;;27.90;90.60;;;;;;5042692;28;20189;-45
2022/10/07 05:10:57;;;;;;;;;;;27.90;90.60;;;;;;5042104;28;24086;-46
2022/10/07 05:13:25;;;;;;;;;;;27.90;90.70;;;;;;5042706;28;19905;-52
2022/10/07 05:15:52;;;;;;;;;;;27.90;90.60;;;;;;5042692;28;19905;-55
2022/10/07 05:18:19;;;;;;;;;;;27.90;90.60;;;;;;5042113;28;19909;-52
2022/10/07 05:20:46;;;;;;;;;;;27.90;90.60;;;;;;5042672;28;20298;-53
2022/10/07 05:23:13;;;;;;;;;;;27.90;90.60;;;;;;5042353;28;19932;-55
2022/10/07 05:25:40;;;;;;;;;;;27.80;90.60;;;;;;5041892;28;20021;-54
2022/10/07 05:28:06;;;;;;;;;;;27.80;90.50;;;;;;5041954;28;20189;-54
2022/10/07 05:30:32;;;;;;;;;;;27.80;90.50;;;;;;5042183;28;20042;-57
2022/10/07 05:32:58;;;;;;;;;;;27.80;90.60;;;;;;5041871;28;20099;-55
2022/10/07 05:35:24;;;;;;;;;;;27.80;90.50;;;;;;5042222;28;20068;-48
2022/10/07 05:37:54;;;;;;;;;;;27.80;90.50;;;;;;5042075;28;19949;-47
2022/10/07 05:40:20;;;;;;;;;;;27.80;90.50;;;;;;5042003;28;20197;-49
2022/10/07 05:42:46;;;;;;;;;;;27.80;90.50;;;;;;5042141;28;19912;-49
2022/10/07 05:45:12;;;;;;;;;;;27.80;90.50;;;;;;5042096;28;19905;-48
2022/10/07 05:47:39;;;;;;;;;;;27.80;90.50;;;;;;5042137;28;20255;-49
2022/10/07 05:50:05;;;;;;;;;;;27.80;90.50;;;;;;5041891;28;24120;-50
2022/10/07 05:52:31;;;;;;;;;;;27.80;90.50;;;;;;5042125;28;20214;-47
2022/10/07 05:54:57;;;;;;;;;;;27.80;90.50;;;;;;5040605;28;19925;-50
2022/10/07 05:57:24;;;;;;;;;;;27.80;90.50;;;;;;5041848;28;20051;-47
2022/10/07 05:59:50;;;;;;;;;;;27.80;90.50;;;;;;5041756;28;19940;-45
2022/10/07 06:02:17;;;;;;;;;;;27.80;90.50;;;;;;5041591;28;19913;-44
2022/10/07 06:04:46;;;;;;;;;;;27.70;90.50;;;;;;5041230;28;20025;-50
2022/10/07 06:07:12;;;;;;;;;;;27.80;90.60;;;;;;5041607;28;24092;-46
2022/10/07 06:15:09;;;;;;;;;;;27.80;90.60;;;;;;5041183;28;19976;-49
2022/10/07 06:17:40;;;;;;;;;;;27.70;90.60;;;;;;5041227;28;20057;-49
2022/10/07 06:20:06;;;;;;;;;;;27.70;90.70;;;;;;5041245;28;24060;-46
2022/10/07 06:22:32;;;;;;;;;;;27.70;90.70;;;;;;5040808;28;19905;-46
2022/10/07 06:25:01;;;;;;;;;;;27.70;90.70;;;;;;5041065;28;19912;-48
2022/10/07 06:27:27;;;;;;;;;;;27.70;90.60;;;;;;5041203;28;20298;-44
2022/10/07 06:29:54;;;;;;;;;;;27.70;90.60;;;;;;5041061;28;20076;-46
2022/10/07 06:32:20;;;;;;;;;;;27.60;90.60;;;;;;5041752;28;19946;-43
2022/10/07 06:34:46;;;;;;;;;;;27.70;90.60;;;;;;5041125;28;20025;-47
2022/10/07 06:37:13;;;;;;;;;;;27.70;90.70;;;;;;5041387;28;19909;-49
2022/10/07 06:39:39;;;;;;;;;;;27.60;90.70;;;;;;5040889;28;19909;-50
2022/10/07 06:42:05;;;;;;;;;;;27.70;90.70;;;;;;5041270;28;19940;-46
2022/10/07 06:44:31;;;;;;;;;;;27.60;90.80;;;;;;5040925;28;20028;-49
2022/10/07 06:46:57;;;;;;;;;;;27.70;90.80;;;;;;5041267;28;19901;-51
2022/10/07 06:49:23;;;;;;;;;;;27.60;90.80;;;;;;5040926;28;20239;-46
2022/10/07 06:51:51;;;;;;;;;;;27.60;90.80;;;;;;5040896;28;19976;-52
2022/10/07 06:54:17;;;;;;;;;;;27.60;90.80;;;;;;5040995;28;20364;-51
2022/10/07 06:56:43;;;;;;;;;;;27.60;90.80;;;;;;5041113;28;19905;-50
2022/10/07 06:59:09;;;;;;;;;;;27.60;90.80;;;;;;5040623;28;20037;-56
2022/10/07 07:01:35;;;;;;;;;;;27.60;90.80;;;;;;5041119;28;20205;-48
2022/10/07 07:04:01;;;;;;;;;;;27.60;90.90;;;;;;5040907;28;20092;-49
2022/10/07 07:06:28;;;;;;;;;;;27.60;90.90;;;;;;5041014;28;19972;-47
2022/10/07 07:08:54;;;;;;;;;;;27.60;90.90;;;;;;5040712;28;19913;-48
2022/10/07 07:11:35;;;;;;;;;;;27.60;91.00;;;;;;5040803;28;20074;-47
2022/10/07 07:14:02;;;;;;;;;;;27.60;91.00;;;;;;5040298;28;19909;-49
2022/10/07 07:16:29;;;;;;;;;;;27.60;91.10;;;;;;5040955;28;20053;-47
2022/10/07 07:18:57;;;;;;;;;;;27.60;91.10;;;;;;5040228;28;20047;-42
2022/10/07 07:21:24;;;;;;;;;;;27.50;91.10;;;;;;5040869;28;20038;-42
2022/10/07 07:23:51;;;;;;;;;;;27.50;91.20;;;;;;5040441;28;19916;-44
2022/10/07 07:26:17;;;;;;;;;;;27.50;91.20;;;;;;5040093;28;20122;-46
2022/10/07 07:28:43;;;;;;;;;;;27.50;91.30;;;;;;5040415;28;19946;-50
2022/10/07 07:31:12;;;;;;;;;;;27.50;91.30;;;;;;5041048;28;19909;-49
2022/10/07 07:33:38;;;;;;;;;;;27.50;91.30;;;;;;5040546;28;20383;-45
2022/10/07 07:36:09;;;;;;;;;;;27.50;91.30;;;;;;5040763;28;20234;-44
2022/10/07 07:38:35;;;;;;;;;;;27.50;91.30;;;;;;5040103;28;20193;-42
2022/10/07 07:41:05;;;;;;;;;;;27.40;91.20;;;;;;5040554;28;19932;-43
2022/10/07 07:43:31;;;;;;;;;;;27.50;91.20;;;;;;5040034;28;20131;-46
2022/10/07 07:45:58;;;;;;;;;;;27.40;91.20;;;;;;5040287;28;19905;-44
2022/10/07 07:48:24;;;;;;;;;;;27.40;91.20;;;;;;5040788;28;19958;-50
2022/10/07 07:50:50;;;;;;;;;;;27.40;91.10;;;;;;5040435;28;19909;-44
2022/10/07 07:53:16;;;;;;;;;;;27.40;91.10;;;;;;5040143;28;20197;-46
2022/10/07 07:56:01;;;;;;;;;;;27.40;91.30;;;;;;5040415;28;19981;-48
2022/10/07 07:58:28;;;;;;;;;;;27.40;91.00;;;;;;5040577;28;19958;-53
2022/10/07 08:00:58;;;;;;;;;;;27.40;91.00;;;;;;5040056;28;19998;-52
2022/10/07 08:03:25;;;;;;;;;;;27.40;90.90;;;;;;5040165;28;20047;-50
2022/10/07 08:05:51;;;;;;;;;;;27.30;90.90;;;;;;5040415;28;19943;-54
2022/10/07 08:08:17;;;;;;;;;;;27.30;90.90;;;;;;5040384;28;20025;-51
2022/10/07 08:10:43;;;;;;;;;;;27.30;90.80;;;;;;5040057;28;20112;-54
2022/10/07 08:13:10;;;;;;;;;;;27.30;90.80;;;;;;5022486;28;20059;-48
2022/10/07 08:15:36;;;;;;;;;;;27.30;90.70;;;;;;5039718;28;19950;-49
2022/10/07 08:18:04;;;;;;;;;;;27.30;90.60;;;;;;5041419;28;19954;-50
2022/10/07 08:20:30;;;;;;;;;;;27.30;90.60;;;;;;5043080;28;20086;-49
2022/10/07 08:22:58;;;;;;;;;;;27.30;90.60;;;;;;5043011;28;20093;-50
2022/10/07 08:25:26;;;;;;;;;;;27.30;90.60;;;;;;5042980;28;19901;-57
2022/10/07 08:27:53;;;;;;;;;;;27.30;90.80;;;;;;5043312;28;20094;-53
2022/10/07 08:30:19;;;;;;;;;;;27.20;90.60;;;;;;5043653;28;19941;-45
2022/10/07 08:32:45;;;;;;;;;;;27.30;90.60;;;;;;5042649;28;19908;-50
2022/10/07 08:35:11;;;;;;;;;;;27.30;90.60;;;;;;5042775;28;19905;-49
2022/10/07 08:37:37;;;;;;;;;;;27.30;90.60;;;;;;5042663;28;19905;-49
2022/10/07 08:40:04;;;;;;;;;;;27.30;90.60;;;;;;5043077;28;20009;-47
2022/10/07 08:42:34;;;;;;;;;;;27.20;90.60;;;;;;5042523;28;20038;-47
2022/10/07 08:45:00;;;;;;;;;;;27.20;90.60;;;;;;5042772;28;19942;-50
2022/10/07 08:47:29;;;;;;;;;;;27.20;90.70;;;;;;5042669;28;19905;-49
2022/10/07 08:49:55;;;;;;;;;;;27.20;90.70;;;;;;5043036;28;20037;-54
2022/10/07 08:52:22;;;;;;;;;;;27.20;90.70;;;;;;5042830;28;19919;-50
2022/10/07 08:54:48;;;;;;;;;;;27.20;90.80;;;;;;5042654;28;20045;-46
2022/10/07 08:57:21;;;;;;;;;;;27.20;90.80;;;;;;5042678;28;19916;-50
2022/10/07 08:59:51;;;;;;;;;;;27.20;90.90;;;;;;5042890;28;19912;-47
2022/10/07 09:02:27;;;;;;;;;;;27.20;90.90;;;;;;5042011;28;19976;-51
2022/10/07 09:04:53;;;;;;;;;;;27.20;91.00;;;;;;5042305;28;24070;-48
2022/10/07 09:07:23;;;;;;;;;;;27.20;91.00;;;;;;5042671;28;19909;-47
2022/10/07 09:09:54;;;;;;;;;;;27.10;91.00;;;;;;5042232;28;24068;-51
2022/10/07 09:12:23;;;;;;;;;;;27.20;91.00;;;;;;5111413;28;19909;-49
2022/10/07 09:14:51;;;;;;;;;;;27.10;91.00;;;;;;5042212;28;20042;-50
2022/10/07 09:17:34;;;;;;;;;;;27.20;91.00;;;;;;5042255;28;19915;-50
2022/10/07 09:20:05;;;;;;;;;;;27.10;91.00;;;;;;5042271;28;20234;-50
2022/10/07 09:22:37;;;;;;;;;;;27.10;91.00;;;;;;5042095;28;19914;-49
2022/10/07 09:25:14;;;;;;;;;;;27.10;91.10;;;;;;5042361;28;20054;-49
2022/10/07 09:27:40;;;;;;;;;;;27.10;91.10;;;;;;5041624;28;19962;-47
2022/10/07 09:30:11;;;;;;;;;;;27.20;91.10;;;;;;5041012;28;19946;-48
2022/10/07 09:32:40;;;;;;;;;;;27.10;91.10;;;;;;5042292;28;19912;-48
2022/10/07 09:35:10;;;;;;;;;;;27.10;91.10;;;;;;5041870;28;20201;-55
2022/10/07 09:37:52;;;;;;;;;;;27.10;91.10;;;;;;5042100;28;19912;-50
2022/10/07 09:40:21;;;;;;;;;;;27.10;91.10;;;;;;5041805;28;25106;-53
2022/10/07 09:42:48;;;;;;;;;;;27.10;91.10;;;;;;5041788;28;19909;-50
2022/10/07 09:45:17;;;;;;;;;;;27.10;91.10;;;;;;5042335;28;19908;-48
2022/10/07 09:47:43;;;;;;;;;;;27.10;91.10;;;;;;5042811;27;19909;-47
2022/10/07 09:50:28;;;;;;;;;;;27.10;91.00;;;;;;5041984;28;19905;-49
2022/10/07 09:52:55;;;;;;;;;;;27.10;90.90;;;;;;5041790;28;19962;-51
2022/10/07 09:55:31;;;;;;;;;;;27.00;90.90;;;;;;5042211;28;19901;-51
2022/10/07 09:58:01;;;;;;;;;;;27.00;90.90;;;;;;5041601;28;19920;-51
2022/10/07 10:00:28;;;;;;;;;;;27.00;90.90;;;;;;5041957;28;19926;-53
2022/10/07 10:03:02;;;;;;;;;;;27.00;90.90;;;;;;5041721;28;19909;-54
2022/10/07 10:05:36;;;;;;;;;;;27.00;90.90;;;;;;5041555;28;20181;-49
2022/10/07 10:08:06;;;;;;;;;;;27.00;90.90;;;;;;5041517;28;19916;-46
2022/10/07 10:10:33;;;;;;;;;;;27.00;91.00;;;;;;5041585;28;19905;-50
2022/10/07 10:13:00;;;;;;;;;;;27.00;91.00;;;;;;5041443;28;19905;-47
2022/10/07 10:15:29;;;;;;;;;;;27.00;90.90;;;;;;5041474;28;24051;-48
2022/10/07 10:17:56;;;;;;;;;;;27.00;91.00;;;;;;5041725;28;19920;-45
2022/10/07 10:20:38;;;;;;;;;;;27.00;91.00;;;;;;5041413;28;19942;-56
2022/10/07 10:23:27;;;;;;;;;;;27.00;91.00;;;;;;5041649;28;19916;-57
2022/10/07 10:26:26;;;;;;;;;;;27.00;91.10;;;;;;5044157;28;19913;-56
2022/10/07 10:29:04;;;;;;;;;;;27.00;91.10;;;;;;5041054;28;25122;-59
2022/10/07 10:31:48;;;;;;;;;;;27.00;91.20;;;;;;5041728;28;19908;-55
2022/10/07 10:34:38;;;;;;;;;;;27.00;91.20;;;;;;5041562;28;19963;-43
2022/10/07 10:37:13;;;;;;;;;;;26.90;91.20;;;;;;5043476;28;19909;-47
2022/10/07 10:39:42;;;;;;;;;;;26.90;91.30;;;;;;5040734;28;19913;-49
2022/10/07 10:42:11;;;;;;;;;;;26.90;91.30;;;;;;5040860;28;19909;-50
2022/10/07 10:45:07;;;;;;;;;;;27.00;91.40;;;;;;5040744;28;19905;-49
2022/10/07 10:47:40;;;;;;;;;;;26.90;91.40;;;;;;5059325;28;19912;-49
2022/10/07 10:50:12;;;;;;;;;;;26.90;91.50;;;;;;5041723;28;19905;-47
2022/10/07 10:52:44;;;;;;;;;;;26.90;91.50;;;;;;5041128;28;19909;-49
2022/10/07 10:55:11;;;;;;;;;;;26.90;91.50;;;;;;5041680;28;19912;-47
2022/10/07 10:57:56;;;;;;;;;;;26.90;91.70;;;;;;5041452;28;19909;-48
2022/10/07 11:00:22;;;;;;;;;;;26.90;91.70;;;;;;5040859;28;24066;-44
2022/10/07 11:03:03;;;;;;;;;;;26.90;91.70;;;;;;5041212;28;20036;-47
2022/10/07 11:05:31;;;;;;;;;;;26.90;91.80;;;;;;5041493;28;19939;-48
2022/10/07 11:08:20;;;;;;;;;;;26.90;91.90;;;;;;5041250;28;19913;-47
2022/10/07 11:10:56;;;;;;;;;;;26.90;91.90;;;;;;5041423;28;19972;-48
2022/10/07 11:13:42;;;;;;;;;;;26.90;91.90;;;;;;5040812;28;24088;-41
2022/10/07 11:16:16;;;;;;;;;;;27.00;92.20;;;;;;5041024;28;19905;-43
2022/10/07 11:18:48;;;;;;;;;;;26.90;92.40;;;;;;5040784;28;19913;-42
2022/10/07 11:21:17;;;;;;;;;;;26.90;92.70;;;;;;5041133;28;19946;-45
2022/10/07 11:23:49;;;;;;;;;;;26.90;93.00;;;;;;5041049;28;20051;-41
2022/10/07 11:26:21;;;;;;;;;;;27.00;93.20;;;;;;5040721;28;20083;-42
2022/10/07 11:28:48;;;;;;;;;;;26.90;93.50;;;;;;5041194;28;19909;-43
2022/10/07 11:31:23;;;;;;;;;;;26.90;93.50;;;;;;5041330;28;19905;-46
2022/10/07 11:34:12;;;;;;;;;;;26.90;93.90;;;;;;5040947;28;19916;-44
2022/10/07 11:36:43;;;;;;;;;;;26.90;93.80;;;;;;5049426;28;24071;-46
2022/10/07 11:39:10;;;;;;;;;;;26.90;93.80;;;;;;5038418;28;24073;-46
2022/10/07 11:42:02;;;;;;;;;;;26.80;93.80;;;;;;5038728;28;19912;-51
2022/10/07 11:44:41;;;;;;;;;;;26.90;93.80;;;;;;5039657;28;19977;-45
2022/10/07 11:47:11;;;;;;;;;;;26.90;93.80;;;;;;5038757;28;19932;-46
2022/10/07 11:49:41;;;;;;;;;;;26.90;93.90;;;;;;5038738;28;19905;-49
2022/10/07 11:52:09;;;;;;;;;;;26.90;93.90;;;;;;5039724;28;19909;-50
2022/10/07 11:54:42;;;;;;;;;;;26.90;93.80;;;;;;5043517;28;20123;-50
2022/10/07 11:57:17;;;;;;;;;;;26.90;93.90;;;;;;5043426;28;19916;-49
2022/10/07 11:59:49;;;;;;;;;;;26.90;93.90;;;;;;5043991;28;20197;-48
2022/10/07 12:02:28;;;;;;;;;;;26.90;94.00;;;;;;5043717;28;19909;-50
2022/10/07 12:05:03;;;;;;;;;;;26.90;94.10;;;;;;5043913;28;19970;-53
2022/10/07 12:07:43;;;;;;;;;;;26.90;94.10;;;;;;5044011;28;19909;-52
2022/10/07 12:10:22;;;;;;;;;;;26.90;94.10;;;;;;5043498;28;19905;-54
2022/10/07 12:12:49;;;;;;;;;;;26.90;94.10;;;;;;5043480;28;19980;-61
2022/10/07 12:15:21;;;;;;;;;;;26.90;94.00;;;;;;5043529;28;19928;-59
2022/10/07 12:17:55;;;;;;;;;;;27.00;94.20;;;;;;5043698;28;19909;-59
2022/10/07 12:20:45;;;;;;;;;;;26.90;94.30;;;;;;5043169;28;19905;-59
2022/10/07 12:23:24;;;;;;;;;;;27.00;94.30;;;;;;5043334;28;20216;-60
2022/10/07 12:25:52;;;;;;;;;;;27.00;94.50;;;;;;5043150;28;20077;-62
2022/10/07 12:28:25;;;;;;;;;;;27.00;94.50;;;;;;5042153;28;19909;-63
2022/10/07 12:30:52;;;;;;;;;;;27.00;94.70;;;;;;5043412;28;19905;-55
2022/10/07 12:33:44;;;;;;;;;;;27.00;94.60;;;;;;5043751;28;19909;-57
2022/10/07 12:36:28;;;;;;;;;;;27.00;94.70;;;;;;5050923;28;19905;-55
2022/10/07 12:39:00;;;;;;;;;;;27.00;94.70;;;;;;5043306;28;19944;-59
2022/10/07 12:41:35;;;;;;;;;;;27.00;94.60;;;;;;5042080;28;19905;-47
2022/10/07 12:44:05;;;;;;;;;;;27.00;94.50;;;;;;5042950;28;20173;-47
2022/10/07 12:46:40;;;;;;;;;;;27.10;95.10;;;;;;5043620;28;19905;-49
2022/10/07 12:49:13;;;;;;;;;;;27.00;95.00;;;;;;5042989;28;20009;-48
2022/10/07 12:51:40;;;;;;;;;;;27.00;94.80;;;;;;5043647;28;24086;-46
2022/10/07 12:54:14;;;;;;;;;;;27.00;94.80;;;;;;5042860;28;20012;-45
2022/10/07 12:56:42;;;;;;;;;;;27.10;95.40;;;;;;5043598;28;24069;-53
2022/10/07 13:02:31;;;;;;;;;;;27.00;95.70;;;;;;5043368;28;19939;-50
2022/10/07 13:04:57;;;;;;;;;;;26.90;95.50;;;;;;5064300;28;19908;-50
2022/10/07 13:07:37;;;;;;;;;;;27.00;95.50;;;;;;5064689;28;19971;-48
2022/10/07 13:10:23;;;;;;;;;;;27.00;95.70;;;;;;5052195;28;19905;-46
2022/10/07 13:13:03;;;;;;;;;;;27.00;95.50;;;;;;5042603;28;20189;-50
2022/10/07 13:15:31;;;;;;;;;;;27.00;95.40;;;;;;5042577;28;19909;-47
2022/10/07 13:18:02;;;;;;;;;;;27.10;96.00;;;;;;5042505;28;19944;-46
2022/10/07 13:20:32;;;;;;;;;;;27.10;96.00;;;;;;5042943;28;19909;-43
2022/10/07 13:23:03;;;;;;;;;;;27.10;96.10;;;;;;5042431;28;20131;-47
2022/10/07 13:25:30;;;;;;;;;;;27.10;96.10;;;;;;5042082;28;19905;-49
2022/10/07 13:27:57;;;;;;;;;;;27.10;95.90;;;;;;5042421;28;19917;-48
2022/10/07 13:30:50;;;;;;;;;;;27.10;95.90;;;;;;5042948;28;20162;-43
2022/10/07 13:33:21;;;;;;;;;;;27.10;96.30;;;;;;5043503;28;25063;-41
2022/10/07 13:35:48;;;;;;;;;;;27.10;96.20;;;;;;5041167;28;20211;-44
2022/10/07 13:38:40;;;;;;;;;;;27.10;96.20;;;;;;5042362;28;19913;-48
2022/10/07 13:41:29;;;;;;;;;;;27.10;96.00;;;;;;5043120;28;25097;-45
2022/10/07 13:44:02;;;;;;;;;;;27.20;96.00;;;;;;5042185;28;20046;-46
2022/10/07 13:46:30;;;;;;;;;;;27.20;96.40;;;;;;5042288;28;24106;-45
2022/10/07 13:48:56;;;;;;;;;;;27.20;96.40;;;;;;5042258;28;19916;-45
2022/10/07 13:51:41;;;;;;;;;;;27.10;96.20;;;;;;5043005;28;19905;-46
2022/10/07 13:54:25;;;;;;;;;;;27.20;96.50;;;;;;5040820;28;24113;-44
2022/10/07 13:56:53;;;;;;;;;;;27.20;96.40;;;;;;5042955;28;19905;-42
2022/10/07 13:59:19;;;;;;;;;;;27.20;96.60;;;;;;5041745;28;19960;-43
2022/10/07 14:01:49;;;;;;;;;;;27.20;96.60;;;;;;5042582;28;20085;-45
2022/10/07 14:04:19;;;;;;;;;;;27.20;96.40;;;;;;5042169;28;19934;-45
2022/10/07 14:06:47;;;;;;;;;;;27.20;96.50;;;;;;5042029;28;24108;-45
2022/10/07 14:09:21;;;;;;;;;;;27.20;96.20;;;;;;5041810;28;19968;-50
2022/10/07 14:11:51;;;;;;;;;;;27.30;96.20;;;;;;5041432;28;20224;-46
2022/10/07 14:14:30;;;;;;;;;;;27.30;96.50;;;;;;5041538;28;19913;-44
2022/10/07 14:16:58;;;;;;;;;;;27.30;96.30;;;;;;5042166;28;19970;-52
2022/10/07 14:19:29;;;;;;;;;;;27.30;96.20;;;;;;5041794;28;19921;-44
2022/10/07 14:21:55;;;;;;;;;;;27.30;96.20;;;;;;5041770;28;20044;-41
2022/10/07 14:24:21;;;;;;;;;;;27.40;96.30;;;;;;5041486;28;19916;-42
2022/10/07 14:26:47;;;;;;;;;;;27.40;96.40;;;;;;5041095;28;20076;-43
2022/10/07 14:29:20;;;;;;;;;;;27.40;96.40;;;;;;5041786;28;19968;-47
2022/10/07 14:37:26;;;;;;;;;;;27.60;96.00;;;;;;5041433;28;20138;-50
2022/10/07 14:39:52;;;;;;;;;;;27.60;96.30;;;;;;5041399;28;19909;-47
2022/10/07 14:42:21;;;;;;;;;;;27.60;96.40;;;;;;5041162;28;20235;-49
2022/10/07 14:44:47;;;;;;;;;;;27.70;96.60;;;;;;5041141;28;20141;-46
2022/10/07 14:47:19;;;;;;;;;;;27.70;96.40;;;;;;5041170;28;24082;-52
2022/10/07 14:49:51;;;;;;;;;;;27.70;96.10;;;;;;5040905;28;19905;-44